Time;durP1;ratioP1;P1;durP2;ratioP2;P2;SDS_P1;SDS_P2;PMS_P1;PMS_P2;Temp;Humidity;BMP_temperature;BMP_pressure;BME280_temperature;BME280_humidity;BME280_pressure;Samples;Min_cycle;Max_cycle;Signal;HPM_P1;HPM_P2
2024/01/01 00:02:31;;;;;;;151.77;64.83;;;4.40;99.90;;;2.41;100.00;99473.66;10217839;28;96423;-94
2024/01/01 00:07:34;;;;;;;183.13;74.00;;;4.40;99.90;;;2.40;100.00;99459.72;10224358;28;97166;-91
2024/01/01 00:12:38;;;;;;;161.97;65.83;;;4.50;99.90;;;2.55;100.00;99464.59;10214410;28;97054;-89
2024/01/01 00:17:42;;;;;;;169.00;67.83;;;4.60;99.90;;;2.58;100.00;99465.16;10212143;28;96610;-89
2024/01/01 00:22:48;;;;;;;153.03;60.20;;;4.60;99.90;;;2.65;100.00;99475.94;10214999;28;96719;-89
2024/01/01 00:27:51;;;;;;;135.17;54.13;;;4.60;99.90;;;2.69;100.00;99469.44;10215680;28;97082;-90
2024/01/01 00:32:55;;;;;;;124.03;51.37;;;4.70;99.90;;;2.75;100.00;99465.44;10177707;28;96640;-89
2024/01/01 00:38:00;;;;;;;101.10;44.00;;;4.70;99.90;;;2.81;100.00;99468.34;10215486;28;97020;-89
2024/01/01 00:43:04;;;;;;;106.57;42.03;;;4.80;99.90;;;2.88;100.00;99451.13;10219005;28;96513;-89
2024/01/01 00:48:08;;;;;;;111.93;44.70;;;4.90;99.90;;;2.97;100.00;99440.75;10233075;28;96701;-90
2024/01/01 00:53:12;;;;;;;104.20;38.90;;;5.00;99.90;;;3.09;100.00;99450.16;10216990;28;97138;-89
2024/01/01 00:58:16;;;;;;;93.00;37.87;;;5.00;99.90;;;3.10;100.00;99446.56;10215186;28;96723;-89
2024/01/01 01:03:20;;;;;;;98.13;39.60;;;5.10;99.90;;;3.14;100.00;99435.63;10215573;28;96749;-89
2024/01/01 01:08:23;;;;;;;103.80;40.57;;;5.20;99.90;;;3.23;100.00;99447.91;10212212;28;97118;-89
2024/01/01 01:13:26;;;;;;;100.33;37.87;;;5.20;99.90;;;3.25;100.00;99429.41;10214439;28;96833;-88
2024/01/01 01:18:30;;;;;;;89.27;35.63;;;5.20;99.90;;;3.11;100.00;99385.19;10215441;28;96596;-88
2024/01/01 01:23:35;;;;;;;142.87;51.30;;;5.20;99.90;;;3.24;100.00;99401.50;10211607;28;96684;-90
2024/01/01 01:28:41;;;;;;;107.17;42.07;;;5.30;99.90;;;3.22;100.00;99401.63;10215785;28;98494;-89
2024/01/01 01:33:45;;;;;;;98.17;37.03;;;5.30;99.90;;;3.32;100.00;99400.81;10196615;28;96474;-88
2024/01/01 01:38:49;;;;;;;101.90;42.83;;;5.30;99.90;;;3.37;100.00;99401.22;10212617;28;96739;-91
2024/01/01 01:43:52;;;;;;;84.73;33.20;;;5.30;99.90;;;3.43;100.00;99398.03;10231915;28;96449;-90
2024/01/01 01:48:57;;;;;;;87.60;32.57;;;5.40;99.90;;;3.44;100.00;99405.75;10246643;28;96517;-89
2024/01/01 01:54:01;;;;;;;78.30;33.03;;;5.40;99.90;;;3.51;100.00;99403.38;10243621;28;96467;-89
2024/01/01 01:59:07;;;;;;;70.90;29.50;;;5.50;99.90;;;3.56;100.00;99389.81;10225426;28;96603;-89
2024/01/01 02:04:13;;;;;;;87.23;35.83;;;5.50;99.90;;;3.53;100.00;99362.03;10211846;28;97918;-89
2024/01/01 02:09:17;;;;;;;98.13;36.67;;;5.50;99.90;;;3.64;100.00;99379.41;10211449;28;96584;-88
2024/01/01 02:14:21;;;;;;;100.37;38.07;;;5.60;99.90;;;3.68;100.00;99383.44;10234181;28;96392;-90
2024/01/01 02:19:28;;;;;;;106.07;41.30;;;5.60;99.90;;;3.69;100.00;99375.38;10225293;28;96427;-89
2024/01/01 02:24:32;;;;;;;95.33;38.33;;;5.70;99.90;;;3.75;100.00;99359.03;10215060;28;96790;-90
2024/01/01 02:29:35;;;;;;;84.10;34.10;;;5.70;99.90;;;3.67;100.00;99339.72;10221708;28;97714;-90
2024/01/01 02:34:39;;;;;;;85.83;37.57;;;5.70;99.90;;;3.73;100.00;99342.59;10210957;28;96569;-90
2024/01/01 02:39:42;;;;;;;97.87;35.23;;;5.70;99.90;;;3.79;100.00;99354.34;10220037;28;96578;-90
2024/01/01 02:44:45;;;;;;;98.93;38.40;;;5.70;99.90;;;3.79;100.00;99338.56;10225879;28;96408;-92
2024/01/01 02:49:50;;;;;;;96.67;37.73;;;5.70;99.90;;;3.80;100.00;99334.13;10220763;28;97796;-91
2024/01/01 02:54:53;;;;;;;89.27;33.53;;;5.80;99.90;;;3.85;100.00;99331.91;10219286;28;96644;-91
2024/01/01 02:59:57;;;;;;;88.93;34.57;;;5.80;99.90;;;3.88;100.00;99336.84;10233336;28;96699;-92
2024/01/01 03:05:00;;;;;;;94.60;38.87;;;5.90;99.90;;;3.85;100.00;99308.25;10220386;28;96431;-92
2024/01/01 03:10:04;;;;;;;92.30;37.23;;;5.90;99.90;;;3.87;100.00;99301.88;10219746;28;96877;-92
2024/01/01 03:15:09;;;;;;;104.57;41.07;;;5.90;99.90;;;3.91;100.00;99297.97;10220441;28;96996;-91
2024/01/01 03:20:13;;;;;;;100.13;40.50;;;6.00;99.90;;;4.01;100.00;99301.34;10190965;28;96554;-91
2024/01/01 03:25:17;;;;;;;136.63;53.33;;;6.00;99.90;;;4.10;100.00;99304.09;10235366;28;96631;-91
2024/01/01 03:30:21;;;;;;;100.40;40.83;;;6.00;99.90;;;4.09;100.00;99281.41;10220436;28;96456;-92
2024/01/01 03:35:25;;;;;;;102.23;41.23;;;6.10;99.90;;;4.24;100.00;99285.16;10216021;28;96588;-92
2024/01/01 03:40:29;;;;;;;90.20;35.23;;;6.20;99.90;;;4.25;100.00;99276.28;10211915;28;97135;-90
2024/01/01 03:45:33;;;;;;;61.73;25.97;;;6.20;99.90;;;4.47;100.00;99270.59;10203757;28;96638;-90
2024/01/01 03:50:37;;;;;;;43.50;18.37;;;6.30;99.90;;;4.66;100.00;99255.59;10224041;28;96433;-90
2024/01/01 03:55:40;;;;;;;29.97;13.67;;;6.50;99.90;;;4.94;100.00;99249.22;10234242;28;96483;-90
2024/01/01 04:00:44;;;;;;;32.07;13.17;;;6.70;99.90;;;5.18;100.00;99253.00;10232508;28;96577;-91
2024/01/01 04:05:48;;;;;;;22.57;9.53;;;7.00;99.90;;;5.42;100.00;99258.38;10219552;28;96575;-91
2024/01/01 04:10:51;;;;;;;21.30;10.57;;;7.20;99.90;;;5.57;100.00;99261.22;10197631;28;96513;-90
2024/01/01 04:15:55;;;;;;;19.83;9.33;;;7.40;99.90;;;5.41;100.00;99261.19;10207338;28;96658;-90
2024/01/01 04:20:58;;;;;;;55.53;22.60;;;7.30;99.90;;;5.20;100.00;99257.09;10229251;28;96439;-91
2024/01/01 04:26:01;;;;;;;16.87;8.47;;;7.10;99.90;;;5.01;100.00;99267.84;10216486;28;96524;-91
2024/01/01 04:31:05;;;;;;;23.30;10.53;;;7.00;99.90;;;4.80;100.00;99260.31;10218097;28;96518;-90
2024/01/01 04:36:09;;;;;;;21.03;10.97;;;6.80;99.90;;;4.69;100.00;99257.94;10198259;28;97245;-90
2024/01/01 04:41:12;;;;;;;26.30;11.47;;;6.60;99.90;;;4.57;100.00;99262.63;10196252;28;96518;-91
2024/01/01 04:46:18;;;;;;;18.27;9.47;;;6.50;99.90;;;4.44;100.00;99259.56;10206077;28;96668;-90
2024/01/01 04:51:21;;;;;;;22.50;10.40;;;6.30;99.90;;;4.36;100.00;99278.69;10218296;28;96426;-91
2024/01/01 04:56:26;;;;;;;18.53;9.27;;;6.20;99.90;;;4.32;100.00;99284.41;10207261;28;96471;-92
2024/01/01 05:01:29;;;;;;;17.97;10.17;;;6.20;99.90;;;4.28;100.00;99297.03;10191664;28;96661;-91
2024/01/01 05:06:32;;;;;;;26.90;12.77;;;6.10;99.90;;;4.17;100.00;99270.97;10232974;28;96473;-93
2024/01/01 05:11:40;;;;;;;28.53;11.93;;;6.10;99.90;;;4.18;100.00;99278.69;10224417;28;96589;-91
2024/01/01 05:16:44;;;;;;;24.37;11.30;;;6.10;99.90;;;4.24;100.00;99306.19;10235842;28;97104;-93
2024/01/01 05:21:48;;;;;;;23.73;9.90;;;6.10;99.90;;;4.19;100.00;99308.44;10244608;28;96626;-94
2024/01/01 05:26:51;;;;;;;21.37;10.57;;;6.10;99.90;;;4.10;100.00;99299.66;10255978;28;97451;-91
2024/01/01 05:31:55;;;;;;;25.97;10.90;;;6.00;99.90;;;4.07;100.00;99284.16;10230163;28;96403;-91
2024/01/01 05:36:58;;;;;;;25.67;11.10;;;6.00;99.90;;;4.00;100.00;99297.06;10212070;28;97233;-91
2024/01/01 05:42:02;;;;;;;25.47;11.77;;;5.90;99.90;;;3.91;100.00;99294.53;10180934;28;96689;-91
2024/01/01 05:47:05;;;;;;;24.17;11.10;;;5.80;99.90;;;3.74;100.00;99283.00;10222742;28;96602;-88
2024/01/01 05:52:08;;;;;;;25.00;12.23;;;5.70;99.90;;;3.68;100.00;99294.09;10163366;28;96942;-90
2024/01/01 05:57:21;;;;;;;30.27;12.93;;;5.50;99.90;;;3.44;100.00;99274.41;10201781;28;96542;-88
2024/01/01 06:02:25;;;;;;;29.03;13.03;;;5.50;99.90;;;3.44;100.00;99297.22;10224141;28;96531;-88
2024/01/01 06:07:28;;;;;;;27.43;11.60;;;5.40;99.90;;;3.36;100.00;99289.22;10201098;28;96488;-88
2024/01/01 06:12:31;;;;;;;33.33;12.73;;;5.30;99.90;;;3.27;100.00;99279.59;10190541;28;96827;-87
2024/01/01 06:17:35;;;;;;;45.90;19.93;;;5.20;99.90;;;3.17;100.00;99277.00;10220886;28;96632;-88
2024/01/01 06:22:38;;;;;;;32.80;13.13;;;5.20;99.90;;;3.12;100.00;99284.47;10222070;28;96414;-88
2024/01/01 06:27:41;;;;;;;27.80;11.83;;;5.10;99.90;;;3.00;100.00;99272.47;10209516;28;96410;-91
2024/01/01 06:32:45;;;;;;;34.10;14.30;;;5.00;99.90;;;3.00;100.00;99293.47;10222107;28;96428;-90
2024/01/01 06:37:48;;;;;;;31.20;13.60;;;5.00;99.90;;;2.92;100.00;99273.19;10220878;28;96573;-91
2024/01/01 06:42:52;;;;;;;64.30;25.63;;;4.90;99.90;;;2.90;100.00;99286.47;10203498;28;96614;-90
2024/01/01 06:47:55;;;;;;;24.77;11.87;;;4.90;99.90;;;2.84;100.00;99284.41;10243031;28;96555;-90
2024/01/01 06:52:59;;;;;;;22.03;10.27;;;4.80;99.90;;;2.80;100.00;99287.44;10243882;28;96720;-90
2024/01/01 06:58:02;;;;;;;21.20;9.73;;;4.80;99.90;;;2.76;100.00;99272.94;10220555;28;96543;-89
2024/01/01 07:03:07;;;;;;;17.77;9.53;;;4.80;99.90;;;2.82;100.00;99301.25;10221374;28;96708;-89
2024/01/01 07:08:12;;;;;;;20.77;9.73;;;4.80;99.90;;;2.81;100.00;99317.97;10207338;28;96522;-89
2024/01/01 07:13:15;;;;;;;23.70;10.37;;;4.80;99.90;;;2.84;100.00;99329.03;10189758;28;96644;-90
2024/01/01 07:18:20;;;;;;;22.40;10.43;;;4.80;99.90;;;2.84;100.00;99336.88;10198627;28;96528;-89
2024/01/01 07:23:24;;;;;;;26.83;11.50;;;4.80;99.90;;;2.87;100.00;99347.09;10213698;28;96450;-89
2024/01/01 07:28:29;;;;;;;26.10;11.17;;;4.80;99.90;;;2.87;100.00;99362.00;10203745;28;96973;-89
2024/01/01 07:33:33;;;;;;;21.23;10.03;;;4.80;99.90;;;2.82;100.00;99362.44;10238022;28;97472;-88
2024/01/01 07:38:41;;;;;;;26.20;10.30;;;4.80;99.90;;;2.83;100.00;99377.22;10219698;28;96458;-89
2024/01/01 07:43:45;;;;;;;25.83;11.13;;;4.80;99.90;;;2.80;100.00;99380.09;10203937;28;96650;-89
2024/01/01 07:48:48;;;;;;;18.33;8.63;;;4.70;99.90;;;2.83;100.00;99385.09;10218287;28;97906;-90
2024/01/01 07:53:52;;;;;;;16.77;7.87;;;4.70;99.90;;;2.86;100.00;99384.81;10219274;28;96729;-89
2024/01/01 07:58:55;;;;;;;15.47;7.10;;;4.70;99.90;;;2.87;100.00;99389.06;10219212;28;96698;-91
2024/01/01 08:03:58;;;;;;;12.40;5.93;;;4.80;99.90;;;2.88;100.00;99400.44;10219271;28;97452;-88
2024/01/01 08:09:02;;;;;;;11.17;5.53;;;4.80;99.90;;;2.89;100.00;99402.91;10209413;28;96462;-89
2024/01/01 08:14:07;;;;;;;9.97;4.50;;;4.80;99.90;;;2.90;100.00;99401.94;10189677;28;96576;-88
2024/01/01 08:19:10;;;;;;;8.70;3.47;;;4.80;99.90;;;2.88;100.00;99396.00;10212728;28;96460;-87
2024/01/01 08:24:17;;;;;;;5.03;2.10;;;4.80;99.90;;;2.93;100.00;99406.91;10197824;28;96599;-88
2024/01/01 08:29:22;;;;;;;4.37;2.00;;;4.80;99.90;;;2.97;100.00;99410.09;10197203;28;96625;-89
2024/01/01 08:34:28;;;;;;;6.63;2.97;;;4.80;99.90;;;3.03;100.00;99395.56;10219294;28;96562;-87
2024/01/01 08:39:46;;;;;;;3.00;2.07;;;4.90;99.90;;;3.09;100.00;99395.84;10219009;28;96691;-87
2024/01/01 08:44:50;;;;;;;5.00;2.50;;;5.00;99.90;;;3.17;100.00;99395.13;10190651;28;96513;-88
2024/01/01 08:49:53;;;;;;;1.40;0.83;;;5.00;99.90;;;3.26;100.00;99381.19;10206909;28;97324;-83
2024/01/01 08:54:57;;;;;;;2.67;1.47;;;5.10;99.90;;;3.33;100.00;99377.00;10207684;28;96694;-86
2024/01/01 09:00:02;;;;;;;2.50;1.00;;;5.20;99.90;;;3.38;100.00;99366.91;10215483;28;96459;-85
2024/01/01 09:05:08;;;;;;;2.27;1.00;;;5.30;99.90;;;3.51;100.00;99399.94;10199083;28;96482;-86
2024/01/01 09:10:11;;;;;;;1.63;0.87;;;5.30;99.90;;;3.57;100.00;99399.34;10215544;28;96514;-85
2024/01/01 09:15:18;;;;;;;2.17;0.80;;;5.40;99.90;;;3.66;100.00;99393.25;10224064;28;96574;-84
2024/01/01 09:20:22;;;;;;;5.20;0.90;;;5.50;99.90;;;3.83;100.00;99395.09;10210629;28;96599;-84
2024/01/01 09:25:25;;;;;;;2.37;0.80;;;5.70;99.90;;;3.99;100.00;99402.38;10211559;28;96692;-84
2024/01/01 09:30:29;;;;;;;5.50;1.30;;;5.80;99.90;;;4.02;100.00;99397.69;10210074;28;96617;-83
2024/01/01 09:35:32;;;;;;;1.50;1.00;;;5.90;99.90;;;4.16;100.00;99395.53;10217085;28;96561;-85
2024/01/01 09:40:36;;;;;;;2.20;0.90;;;6.00;99.90;;;4.32;100.00;99418.53;10227366;28;96711;-86
2024/01/01 09:45:39;;;;;;;4.30;1.33;;;6.20;99.90;;;4.40;100.00;99419.47;10223635;28;99196;-85
2024/01/01 09:50:43;;;;;;;2.10;1.03;;;6.30;99.90;;;4.52;100.00;99420.94;10218502;28;96589;-83
2024/01/01 09:55:54;;;;;;;7.77;2.83;;;6.40;99.90;;;4.62;100.00;99409.50;10218972;28;96636;-86
2024/01/01 10:01:13;;;;;;;1.25;0.90;;;6.50;99.90;;;4.62;100.00;99398.97;10218461;28;96590;-85
2024/01/01 10:06:17;;;;;;;2.93;1.20;;;6.50;99.90;;;4.63;100.00;99411.19;10218011;28;96443;-85
2024/01/01 10:11:21;;;;;;;2.60;0.80;;;6.50;99.90;;;4.64;100.00;99420.72;10206610;28;98016;-86
2024/01/01 10:16:28;;;;;;;6.37;0.93;;;6.50;99.90;;;4.67;100.00;99439.66;10214439;28;96546;-84
2024/01/01 10:21:35;;;;;;;3.30;1.07;;;6.50;99.90;;;4.74;100.00;99430.22;10202129;28;96548;-85
2024/01/01 10:26:44;;;;;;;3.10;1.17;;;6.60;99.90;;;4.87;100.00;99435.09;10204734;28;96625;-86
2024/01/01 10:31:48;;;;;;;12.80;3.93;;;6.70;99.90;;;5.03;100.00;99431.78;10222246;28;96670;-87
2024/01/01 10:36:53;;;;;;;3.03;1.13;;;6.90;99.90;;;5.22;100.00;99436.09;10210475;28;96573;-87
2024/01/01 10:41:57;;;;;;;19.43;9.47;;;7.10;99.90;;;5.38;100.00;99421.22;10218329;28;96748;-86
2024/01/01 10:47:07;;;;;;;4.57;1.63;;;7.30;99.90;;;5.46;100.00;99428.38;10209197;28;96743;-87
2024/01/01 10:52:36;;;;;;;2.78;0.95;;;7.40;99.90;;;5.54;100.00;99432.84;10202142;28;96954;-87
2024/01/01 10:58:03;;;;;;;1.90;1.07;;;7.40;99.90;;;5.60;100.00;99438.34;10243489;28;97059;-86
2024/01/01 11:03:13;;;;;;;2.90;1.90;;;7.50;99.90;;;5.65;100.00;99429.97;10211798;28;96610;-87
2024/01/01 11:08:27;;;;;;;3.03;1.10;;;7.60;99.90;;;5.74;100.00;99441.38;10202477;28;98106;-89
2024/01/01 11:13:31;;;;;;;3.67;1.50;;;7.60;99.90;;;5.75;100.00;99429.84;10204561;28;96541;-86
2024/01/01 11:18:38;;;;;;;2.23;1.03;;;7.70;99.90;;;5.78;100.00;99438.28;10225036;28;96602;-88
2024/01/01 11:23:46;;;;;;;1.60;0.93;;;7.70;99.90;;;5.85;100.00;99433.22;10207078;28;97807;-87
2024/01/01 11:28:55;;;;;;;2.50;1.20;;;7.70;99.90;;;5.90;100.00;99433.56;10208064;28;96563;-87
2024/01/01 11:34:05;;;;;;;2.97;1.33;;;7.80;99.90;;;5.95;100.00;99430.50;10190991;28;96617;-88
2024/01/01 11:39:26;;;;;;;2.93;1.13;;;7.80;99.90;;;5.97;100.00;99434.63;10197409;28;97579;-85
2024/01/01 11:44:30;;;;;;;4.10;1.20;;;7.90;99.90;;;6.05;100.00;99434.66;10215942;28;96852;-85
2024/01/01 11:49:33;;;;;;;2.03;1.10;;;7.90;99.90;;;6.05;100.00;99445.22;10221694;28;96685;-87
2024/01/01 11:54:37;;;;;;;2.43;1.07;;;7.90;99.90;;;6.00;100.00;99446.66;10230243;28;96532;-87
2024/01/01 11:59:41;;;;;;;4.80;1.37;;;7.90;99.90;;;5.97;100.00;99444.34;10218182;28;96605;-87
2024/01/01 12:04:52;;;;;;;4.30;1.40;;;7.80;99.90;;;6.03;100.00;99444.56;10220783;28;96519;-86
2024/01/01 12:10:09;;;;;;;2.20;1.33;;;7.90;99.90;;;6.11;100.00;99451.66;10230438;28;96544;-84
2024/01/01 12:15:18;;;;;;;5.60;1.77;;;7.90;99.90;;;6.14;100.00;99460.09;10225183;28;96536;-87
2024/01/01 12:20:25;;;;;;;6.70;2.33;;;8.00;99.90;;;6.12;100.00;99437.53;10221438;28;98027;-86
2024/01/01 12:25:29;;;;;;;4.37;1.70;;;8.00;99.90;;;6.16;100.00;99452.84;10212947;28;96741;-85
2024/01/01 12:30:36;;;;;;;4.13;1.90;;;8.00;99.90;;;6.19;100.00;99443.00;10214002;28;97148;-86
2024/01/01 12:35:39;;;;;;;4.70;2.13;;;8.10;99.90;;;6.30;100.00;99456.72;10213180;28;96602;-85
2024/01/01 12:40:43;;;;;;;5.77;1.90;;;8.10;99.90;;;6.34;100.00;99455.41;10212601;28;96547;-86
2024/01/01 12:45:47;;;;;;;4.57;2.50;;;8.20;99.90;;;6.39;100.00;99455.75;10215838;28;96750;-87
2024/01/01 12:50:51;;;;;;;4.23;2.10;;;8.30;99.90;;;6.44;100.00;99458.75;10210558;28;96702;-87
2024/01/01 12:55:55;;;;;;;5.47;1.97;;;8.30;99.90;;;6.46;100.00;99445.38;10212744;28;96751;-88
2024/01/01 13:00:58;;;;;;;5.50;2.80;;;8.30;99.90;;;6.41;100.00;99440.59;10207383;28;97615;-88
2024/01/01 13:06:02;;;;;;;5.17;2.20;;;8.40;99.90;;;6.41;100.00;99442.41;10193813;28;96576;-87
2024/01/01 13:11:06;;;;;;;7.87;2.73;;;8.30;99.90;;;6.39;100.00;99444.38;10200930;28;96585;-88
2024/01/01 13:16:10;;;;;;;4.77;2.50;;;8.30;99.90;;;6.34;100.00;99450.13;10210975;28;97650;-88
2024/01/01 13:21:17;;;;;;;7.13;3.83;;;8.30;99.90;;;6.26;100.00;99468.56;10230199;28;96817;-84
2024/01/01 13:26:21;;;;;;;8.27;2.57;;;8.20;99.90;;;6.21;100.00;99472.66;10232734;28;96560;-87
2024/01/01 13:31:24;;;;;;;5.90;2.23;;;8.10;99.90;;;6.10;100.00;99465.84;10219178;28;96435;-86
2024/01/01 13:36:28;;;;;;;5.57;2.53;;;8.00;99.90;;;6.14;100.00;99499.69;10210848;28;96622;-87
2024/01/01 13:41:31;;;;;;;7.20;3.00;;;8.00;99.90;;;6.15;100.00;99503.97;10172791;28;96461;-86
2024/01/01 13:46:38;;;;;;;5.37;2.53;;;8.00;99.90;;;6.12;100.00;99508.75;10200426;28;96575;-86
2024/01/01 13:51:41;;;;;;;5.77;3.20;;;8.00;99.90;;;6.19;100.00;99519.50;10205284;28;96622;-86
2024/01/01 13:56:45;;;;;;;7.27;3.30;;;8.10;99.90;;;6.22;100.00;99524.44;10211502;28;96567;-86
2024/01/01 14:01:48;;;;;;;6.10;3.13;;;8.10;99.90;;;6.28;100.00;99535.19;10205454;28;96792;-86
2024/01/01 14:06:52;;;;;;;6.60;3.30;;;8.20;99.90;;;6.24;100.00;99530.38;10210478;28;96452;-87
2024/01/01 14:11:55;;;;;;;8.03;3.23;;;8.10;99.90;;;6.19;100.00;99537.97;10215774;28;96562;-87
2024/01/01 14:16:59;;;;;;;5.73;3.07;;;8.10;99.90;;;6.11;100.00;99547.47;10206082;28;96574;-86
2024/01/01 14:22:03;;;;;;;8.80;3.83;;;8.00;99.90;;;6.09;100.00;99553.88;10243506;28;96474;-88
2024/01/01 14:27:09;;;;;;;6.33;2.60;;;8.00;99.90;;;6.01;100.00;99567.03;10228640;28;96841;-88
2024/01/01 14:32:16;;;;;;;7.27;3.13;;;7.90;99.90;;;5.93;100.00;99573.03;10211742;28;96645;-88
2024/01/01 14:37:20;;;;;;;33.33;10.10;;;7.90;99.90;;;5.94;100.00;99576.50;10217624;28;98048;-88
2024/01/01 14:42:23;;;;;;;10.53;4.70;;;7.90;99.90;;;5.91;100.00;99582.94;10218256;28;97671;-89
2024/01/01 14:47:27;;;;;;;7.53;3.70;;;7.90;99.90;;;5.82;100.00;99583.81;10227151;28;96743;-89
2024/01/01 14:52:30;;;;;;;8.87;3.90;;;7.80;99.90;;;5.75;100.00;99598.56;10214926;28;96652;-88
2024/01/01 14:57:34;;;;;;;16.47;7.67;;;7.70;99.90;;;5.71;100.00;99602.50;10206355;28;97581;-89
2024/01/01 15:02:37;;;;;;;43.60;18.83;;;7.60;99.90;;;5.62;100.00;99609.50;10194299;28;97583;-89
2024/01/01 15:07:41;;;;;;;17.83;8.23;;;7.60;99.90;;;5.58;100.00;99611.63;10215059;28;96644;-88
2024/01/01 15:12:45;;;;;;;13.00;5.70;;;7.50;99.90;;;5.52;100.00;99609.59;10212678;28;96488;-89
2024/01/01 15:17:49;;;;;;;30.77;12.00;;;7.40;99.90;;;5.41;100.00;99627.41;10212436;28;96477;-88
2024/01/01 15:22:53;;;;;;;20.63;8.23;;;7.40;99.90;;;5.30;100.00;99636.34;10205509;28;97281;-88
2024/01/01 15:27:56;;;;;;;15.43;6.67;;;7.30;99.90;;;5.22;100.00;99639.72;10213599;28;96757;-88
2024/01/01 15:32:59;;;;;;;15.90;5.73;;;7.20;99.90;;;5.16;100.00;99640.31;10198398;28;97323;-89
2024/01/01 15:38:03;;;;;;;49.17;13.80;;;7.10;99.90;;;5.06;100.00;99647.44;10194773;28;96786;-90
2024/01/01 15:43:07;;;;;;;22.63;7.33;;;7.10;99.90;;;5.04;100.00;99658.13;10210759;28;97270;-89
2024/01/01 15:48:11;;;;;;;21.97;8.73;;;7.00;99.90;;;5.01;100.00;99662.84;10190698;28;96604;-89
2024/01/01 15:53:20;;;;;;;15.70;6.43;;;7.00;99.90;;;4.89;100.00;99659.56;10226325;28;96593;-92
2024/01/01 15:58:25;;;;;;;18.27;7.70;;;6.90;99.90;;;4.82;100.00;99674.28;10216518;28;97536;-92
2024/01/01 16:03:29;;;;;;;20.60;9.27;;;6.80;99.90;;;4.75;100.00;99689.81;10196210;28;96917;-91
2024/01/01 16:08:32;;;;;;;14.33;7.50;;;6.70;99.90;;;4.60;100.00;99685.13;10230193;28;97521;-91
2024/01/01 16:13:36;;;;;;;9.10;3.93;;;6.60;99.90;;;4.53;100.00;99701.50;10192837;28;97763;-90
2024/01/01 16:18:40;;;;;;;10.80;4.70;;;6.50;99.90;;;4.43;100.00;99699.84;10206498;28;97042;-92
2024/01/01 16:23:43;;;;;;;6.13;3.20;;;6.40;99.90;;;4.39;100.00;99715.09;10213587;28;96657;-92
2024/01/01 16:28:47;;;;;;;10.97;4.53;;;6.30;99.90;;;4.32;100.00;99719.25;10210177;28;96596;-93
2024/01/01 16:33:50;;;;;;;7.63;3.73;;;6.30;99.90;;;4.26;100.00;99731.16;10206163;28;96617;-92
2024/01/01 16:38:55;;;;;;;7.80;3.07;;;6.20;99.90;;;4.29;100.00;99733.50;10210573;28;98577;-92
2024/01/01 16:43:59;;;;;;;8.00;3.40;;;6.30;99.90;;;4.33;100.00;99734.06;10216391;28;96629;-92
2024/01/01 16:49:03;;;;;;;7.53;3.37;;;6.30;99.90;;;4.32;100.00;99731.56;10203898;28;96747;-92
2024/01/01 16:54:07;;;;;;;10.10;4.10;;;6.30;99.90;;;4.32;100.00;99737.69;10208532;28;96950;-91
2024/01/01 16:59:10;;;;;;;11.00;4.63;;;6.30;99.90;;;4.27;100.00;99734.63;10207273;28;97805;-92
2024/01/01 17:04:14;;;;;;;7.07;3.40;;;6.20;99.90;;;4.26;100.00;99736.44;10204818;28;96831;-91
2024/01/01 17:09:19;;;;;;;8.53;3.27;;;6.30;99.90;;;4.28;100.00;99746.81;10195888;28;97747;-90
2024/01/01 17:14:28;;;;;;;7.37;3.17;;;6.20;99.90;;;4.34;100.00;99743.63;10194780;28;96877;-91
2024/01/01 17:19:35;;;;;;;5.43;2.90;;;6.30;99.90;;;4.37;100.00;99758.28;10204664;28;96907;-90
2024/01/01 17:24:39;;;;;;;6.40;2.87;;;6.30;99.90;;;4.34;100.00;99769.09;10204060;28;96968;-90
2024/01/01 17:29:43;;;;;;;6.57;2.03;;;6.30;99.90;;;4.33;100.00;99784.03;10184598;28;98230;-91
2024/01/01 17:34:46;;;;;;;17.00;6.67;;;6.20;99.90;;;4.34;100.00;99780.44;10198404;28;97089;-91
2024/01/01 17:39:50;;;;;;;11.00;4.73;;;6.30;99.90;;;4.21;100.00;99774.63;10192710;28;96676;-89
2024/01/01 17:44:56;;;;;;;8.80;3.70;;;6.20;99.90;;;4.25;100.00;99794.41;10208310;28;96990;-91
2024/01/01 17:49:59;;;;;;;8.57;2.00;;;6.20;99.90;;;4.26;100.00;99794.28;10210379;28;96616;-90
2024/01/01 17:55:04;;;;;;;4.43;2.10;;;6.20;99.90;;;4.21;100.00;99793.03;10210587;28;97350;-90
2024/01/01 18:00:09;;;;;;;6.07;2.57;;;6.20;99.90;;;4.25;100.00;99789.97;10206871;28;96786;-90
2024/01/01 18:05:16;;;;;;;5.10;2.20;;;6.20;99.90;;;4.31;100.00;99791.22;10197680;28;96770;-89
2024/01/01 18:10:20;;;;;;;5.20;2.03;;;6.30;99.90;;;4.33;100.00;99796.38;10208854;28;96766;-90
2024/01/01 18:15:24;;;;;;;5.53;1.60;;;6.30;99.90;;;4.34;100.00;99798.03;10208408;28;97275;-88
2024/01/01 18:20:27;;;;;;;4.70;1.70;;;6.30;99.90;;;4.39;100.00;99815.06;10228866;28;96529;-92
2024/01/01 18:25:31;;;;;;;4.77;1.63;;;6.30;99.90;;;4.33;100.00;99815.63;10212508;28;96590;-93
2024/01/01 18:30:35;;;;;;;4.70;1.83;;;6.40;99.90;;;4.35;100.00;99837.34;10203185;28;96622;-92
2024/01/01 18:35:38;;;;;;;4.67;2.10;;;6.30;99.90;;;4.20;100.00;99842.19;10218971;28;96461;-92
2024/01/01 18:40:43;;;;;;;6.77;1.90;;;6.30;99.90;;;4.09;100.00;99836.19;10225639;28;96688;-92
2024/01/01 18:45:46;;;;;;;7.83;2.90;;;6.10;99.90;;;3.98;100.00;99837.97;10209289;28;97358;-92
2024/01/01 18:50:53;;;;;;;5.30;2.10;;;6.00;99.90;;;3.94;100.00;99833.94;10205106;28;96687;-93
2024/01/01 18:56:00;;;;;;;5.47;1.80;;;5.90;99.90;;;3.87;100.00;99830.19;10217002;28;96650;-94
2024/01/01 19:01:05;;;;;;;7.87;1.83;;;5.90;99.90;;;3.79;100.00;99829.19;10211055;28;97809;-92
2024/01/01 19:06:16;;;;;;;3.00;1.23;;;5.90;99.90;;;4.02;100.00;99851.69;10196854;28;97136;-94
2024/01/01 19:11:20;;;;;;;9.60;3.20;;;5.90;99.90;;;4.05;100.00;99853.22;10216665;28;96663;-93
2024/01/01 19:16:23;;;;;;;5.50;2.67;;;6.00;99.90;;;3.93;100.00;99849.84;10217471;28;96605;-94
2024/01/01 19:21:27;;;;;;;5.77;2.40;;;6.00;99.90;;;3.85;100.00;99845.28;10202511;28;96525;-92
2024/01/01 19:26:31;;;;;;;5.90;2.00;;;6.00;99.90;;;3.89;100.00;99862.41;10192648;28;96612;-94
2024/01/01 19:31:42;;;;;;;5.53;2.00;;;6.00;99.90;;;3.80;100.00;99859.78;10196911;28;96645;-94
2024/01/01 19:36:46;;;;;;;4.93;2.00;;;5.90;99.90;;;3.70;100.00;99862.34;10203386;28;97819;-93
2024/01/01 19:41:51;;;;;;;2.77;1.30;;;5.80;99.90;;;3.64;100.00;99861.09;10204518;28;97640;-93
2024/01/01 19:46:54;;;;;;;3.80;1.27;;;5.80;99.90;;;3.51;100.00;99849.13;10201895;28;97600;-95
2024/01/01 19:51:57;;;;;;;5.80;2.03;;;5.70;99.90;;;3.43;100.00;99861.13;10194731;28;96532;-94
2024/01/01 19:57:01;;;;;;;8.23;2.83;;;5.60;99.90;;;3.22;100.00;99853.25;10210318;28;97027;-94
2024/01/01 20:02:04;;;;;;;13.53;3.83;;;5.40;99.90;;;3.07;100.00;99856.34;10203909;28;96589;-93
2024/01/01 20:07:08;;;;;;;8.00;3.50;;;5.30;99.90;;;2.92;100.00;99863.69;10216188;28;96557;-94
2024/01/01 20:12:11;;;;;;;5.23;2.50;;;5.10;99.90;;;2.74;100.00;99860.81;10213385;28;97180;-93
2024/01/01 20:17:16;;;;;;;7.90;3.17;;;4.90;99.90;;;2.67;100.00;99889.34;10197803;28;96615;-93
2024/01/01 20:22:19;;;;;;;4.47;2.40;;;4.80;99.90;;;2.56;100.00;99899.84;10213364;28;97239;-94
2024/01/01 20:27:24;;;;;;;5.67;2.20;;;4.70;99.90;;;2.50;100.00;99889.03;10202514;28;96637;-94
2024/01/01 20:32:28;;;;;;;5.73;1.80;;;4.60;99.90;;;2.62;100.00;99888.88;10198536;28;96636;-93
2024/01/01 20:37:34;;;;;;;6.10;2.00;;;4.60;99.90;;;2.80;100.00;99885.72;10239715;28;97325;-92
2024/01/01 20:42:38;;;;;;;4.10;1.67;;;4.80;99.90;;;3.05;100.00;99885.34;10259773;28;97195;-94
2024/01/01 20:47:49;;;;;;;4.37;2.23;;;5.00;99.90;;;3.27;100.00;99892.28;10191553;28;97160;-93
2024/01/01 20:52:53;;;;;;;4.70;1.80;;;5.20;99.90;;;3.40;100.00;99899.94;10188531;28;96714;-93
2024/01/01 20:58:00;;;;;;;3.60;1.73;;;5.40;99.90;;;3.40;100.00;99894.69;10200445;28;96495;-95
2024/01/01 21:03:05;;;;;;;8.17;2.37;;;5.40;99.90;;;3.34;100.00;99884.72;10241004;28;96548;-96
2024/01/01 21:08:10;;;;;;;5.37;1.80;;;5.40;99.90;;;3.22;100.00;99870.81;10250791;28;96457;-93